Time,TemperatureF,DewpointF,PressureIn,WindDirection,WindDirectionDegrees,WindSpeedMPH,WindSpeedGustMPH,Humidity,HourlyPrecipIn,Conditions,Clouds,dailyrainin,SolarRadiationWatts/m^2,SoftwareType,DateUTC
2013-03-20 00:02:00,58.0,34.0,-100.00,NE,41,6.0,14.0,40,0.00,,,0.00,0.000000,,2013-03-20 05:02:00,
2013-03-20 00:33:00,55.0,31.0,-100.00,NNE,28,6.0,12.0,39,0.00,,,0.00,0.000000,,2013-03-20 05:33:00,
2013-03-20 00:43:00,55.0,31.0,-100.00,NNE,28,6.0,12.0,39,0.00,,,0.00,0.000000,,2013-03-20 05:43:00,
2013-03-20 00:53:00,55.0,31.0,-100.00,NNE,28,6.0,12.0,39,0.00,,,0.00,0.000000,,2013-03-20 05:53:00,
2013-03-20 01:02:00,55.0,31.0,-100.00,NNE,28,6.0,12.0,39,0.00,,,0.00,0.000000,,2013-03-20 06:02:00,
2013-03-20 01:32:00,53.0,31.0,-100.00,NNE,17,6.0,11.0,42,0.00,,,0.00,0.000000,,2013-03-20 06:32:00,
2013-03-20 01:43:00,53.0,31.0,-100.00,NNE,17,6.0,11.0,42,0.00,,,0.00,0.000000,,2013-03-20 06:43:00,
2013-03-20 01:53:00,53.0,31.0,-100.00,NNE,17,6.0,11.0,42,0.00,,,0.00,0.000000,,2013-03-20 06:53:00,
2013-03-20 02:02:00,53.0,31.0,-100.00,NNE,17,6.0,11.0,42,0.00,,,0.00,0.000000,,2013-03-20 07:02:00,
2013-03-20 02:32:00,52.0,31.0,-100.00,NE,34,6.0,12.0,44,0.00,,,0.00,0.000000,,2013-03-20 07:32:00,
2013-03-20 02:42:00,52.0,31.0,-100.00,NE,34,6.0,12.0,44,0.00,,,0.00,0.000000,,2013-03-20 07:42:00,
2013-03-20 02:52:00,52.0,31.0,-100.00,NE,34,6.0,12.0,44,0.00,,,0.00,0.000000,,2013-03-20 07:52:00,
2013-03-20 03:02:00,52.0,31.0,-100.00,NE,34,6.0,12.0,44,0.00,,,0.00,0.000000,,2013-03-20 08:02:00,
2013-03-20 03:32:00,51.0,29.0,-100.00,NNE,12,5.0,9.0,42,0.00,,,0.00,0.000000,,2013-03-20 08:32:00,
2013-03-20 03:42:00,51.0,29.0,-100.00,NNE,12,5.0,9.0,42,0.00,,,0.00,0.000000,,2013-03-20 08:42:00,
2013-03-20 03:52:00,51.0,29.0,-100.00,NNE,12,5.0,9.0,42,0.00,,,0.00,0.000000,,2013-03-20 08:52:00,
2013-03-20 04:02:00,51.0,29.0,-100.00,NNE,12,5.0,9.0,42,0.00,,,0.00,0.000000,,2013-03-20 09:02:00,
2013-03-20 04:33:00,50.0,29.0,-100.00,NE,42,4.0,8.0,44,0.00,,,0.00,0.000000,,2013-03-20 09:33:00,
2013-03-20 04:43:00,50.0,29.0,-100.00,NE,42,4.0,8.0,44,0.00,,,0.00,0.000000,,2013-03-20 09:43:00,
2013-03-20 04:53:00,50.0,29.0,-100.00,NE,42,4.0,8.0,44,0.00,,,0.00,0.000000,,2013-03-20 09:53:00,
2013-03-20 05:03:00,50.0,29.0,-100.00,NE,42,4.0,8.0,44,0.00,,,0.00,0.000000,,2013-03-20 10:03:00,
2013-03-20 05:33:00,47.0,28.0,-100.00,North,5,3.0,8.0,48,0.00,,,0.00,0.000000,,2013-03-20 10:33:00,
2013-03-20 05:43:00,47.0,28.0,-100.00,North,5,3.0,8.0,48,0.00,,,0.00,0.000000,,2013-03-20 10:43:00,
2013-03-20 05:53:00,47.0,28.0,-100.00,North,5,3.0,8.0,48,0.00,,,0.00,0.000000,,2013-03-20 10:53:00,
2013-03-20 06:03:00,47.0,28.0,-100.00,North,5,3.0,8.0,48,0.00,,,0.00,0.000000,,2013-03-20 11:03:00,
2013-03-20 06:32:00,47.0,29.0,-100.00,NNE,27,3.0,8.0,49,0.00,,,0.00,0.000000,,2013-03-20 11:32:00,
2013-03-20 06:42:00,47.0,29.0,-100.00,NNE,27,3.0,8.0,49,0.00,,,0.00,0.000000,,2013-03-20 11:42:00,
2013-03-20 06:52:00,47.0,29.0,-100.00,NNE,27,3.0,8.0,49,0.00,,,0.00,0.000000,,2013-03-20 11:52:00,
2013-03-20 07:02:00,47.0,29.0,-100.00,NNE,27,3.0,8.0,49,0.00,,,0.00,0.000000,,2013-03-20 12:02:00,
2013-03-20 07:33:00,46.0,30.0,-100.00,NE,36,4.0,6.0,53,0.00,,,-99.99,0.000000,,2013-03-20 12:33:00,
2013-03-20 07:43:00,46.0,30.0,-100.00,NE,36,4.0,6.0,53,0.00,,,-99.99,0.000000,,2013-03-20 12:43:00,
2013-03-20 07:52:00,46.0,30.0,-100.00,NE,36,4.0,6.0,53,0.00,,,-99.99,0.000000,,2013-03-20 12:52:00,
2013-03-20 08:03:00,46.0,30.0,-100.00,NE,36,4.0,6.0,53,0.00,,,-99.99,0.000000,,2013-03-20 13:03:00,
2013-03-20 08:32:00,46.0,32.0,-100.00,ENE,62,4.0,5.0,59,0.00,,,0.00,11.000000,,2013-03-20 13:32:00,
2013-03-20 08:43:00,46.0,32.0,-100.00,ENE,62,4.0,5.0,59,0.00,,,0.00,11.000000,,2013-03-20 13:43:00,
2013-03-20 08:53:00,46.0,32.0,-100.00,ENE,62,4.0,5.0,59,0.00,,,0.00,11.000000,,2013-03-20 13:53:00,
2013-03-20 09:02:00,46.0,32.0,-100.00,ENE,62,4.0,5.0,59,0.00,,,0.00,11.000000,,2013-03-20 14:02:00,
2013-03-20 09:34:00,50.0,34.0,-100.00,NNE,31,5.0,6.0,55,0.00,,,0.00,175.000000,,2013-03-20 14:34:00,
2013-03-20 09:43:00,50.0,34.0,-100.00,NNE,31,5.0,6.0,55,0.00,,,0.00,175.000000,,2013-03-20 14:43:00,
2013-03-20 09:52:00,50.0,34.0,-100.00,NNE,31,5.0,6.0,55,0.00,,,0.00,175.000000,,2013-03-20 14:52:00,
2013-03-20 10:02:00,50.0,34.0,-100.00,NNE,31,5.0,6.0,55,0.00,,,0.00,175.000000,,2013-03-20 15:02:00,
2013-03-20 10:33:00,54.0,35.0,-100.00,NE,47,6.0,9.0,48,0.00,,,0.00,443.000000,,2013-03-20 15:33:00,
2013-03-20 10:43:00,54.0,35.0,-100.00,NE,47,6.0,9.0,48,0.00,,,0.00,443.000000,,2013-03-20 15:43:00,
2013-03-20 10:53:00,54.0,35.0,-100.00,NE,47,6.0,9.0,48,0.00,,,0.00,443.000000,,2013-03-20 15:53:00,
2013-03-20 11:03:00,54.0,35.0,-100.00,NE,47,6.0,9.0,48,0.00,,,0.00,443.000000,,2013-03-20 16:03:00,
2013-03-20 11:33:00,59.0,34.0,-100.00,NE,53,6.0,11.0,39,0.00,,,0.00,697.000000,,2013-03-20 16:33:00,
2013-03-20 11:43:00,59.0,34.0,-100.00,NE,53,6.0,11.0,39,0.00,,,0.00,697.000000,,2013-03-20 16:43:00,
2013-03-20 11:53:00,59.0,34.0,-100.00,NE,53,6.0,11.0,39,0.00,,,0.00,697.000000,,2013-03-20 16:53:00,
2013-03-20 12:03:00,59.0,34.0,-100.00,NE,53,6.0,11.0,39,0.00,,,0.00,697.000000,,2013-03-20 17:03:00,
2013-03-20 12:33:00,62.0,31.0,-100.00,ENE,73,10.0,16.0,31,0.00,,,0.00,897.000000,,2013-03-20 17:33:00,
2013-03-20 12:42:00,62.0,31.0,-100.00,ENE,73,10.0,16.0,31,0.00,,,0.00,897.000000,,2013-03-20 17:42:00,
2013-03-20 12:53:00,62.0,31.0,-100.00,ENE,73,10.0,16.0,31,0.00,,,0.00,897.000000,,2013-03-20 17:53:00,
2013-03-20 13:02:00,62.0,31.0,-100.00,ENE,73,10.0,16.0,31,0.00,,,0.00,897.000000,,2013-03-20 18:02:00,
2013-03-20 13:34:00,64.0,29.0,-100.00,NNE,22,8.0,14.0,27,0.00,,,0.00,1031.000000,,2013-03-20 18:34:00,
2013-03-20 13:43:00,64.0,29.0,-100.00,NNE,22,8.0,14.0,27,0.00,,,0.00,1031.000000,,2013-03-20 18:43:00,
2013-03-20 13:53:00,64.0,29.0,-100.00,NNE,22,8.0,14.0,27,0.00,,,0.00,1031.000000,,2013-03-20 18:53:00,
2013-03-20 14:02:00,64.0,29.0,-100.00,NNE,22,8.0,14.0,27,0.00,,,0.00,1031.000000,,2013-03-20 19:02:00,
2013-03-20 14:33:00,66.0,27.0,-100.00,ESE,109,7.0,14.0,23,0.00,,,0.00,1079.000000,,2013-03-20 19:33:00,
2013-03-20 14:42:00,66.0,27.0,-100.00,ESE,109,7.0,14.0,23,0.00,,,0.00,1079.000000,,2013-03-20 19:42:00,
2013-03-20 14:53:00,66.0,27.0,-100.00,ESE,109,7.0,14.0,23,0.00,,,0.00,1079.000000,,2013-03-20 19:53:00,
2013-03-20 15:02:00,66.0,27.0,-100.00,ESE,109,7.0,14.0,23,0.00,,,0.00,1079.000000,,2013-03-20 20:02:00,
2013-03-20 15:32:00,68.0,25.0,-100.00,NNE,27,7.0,13.0,20,0.00,,,0.00,1038.000000,,2013-03-20 20:32:00,
2013-03-20 15:43:00,68.0,25.0,-100.00,NNE,27,7.0,13.0,20,0.00,,,0.00,1038.000000,,2013-03-20 20:43:00,
2013-03-20 15:53:00,68.0,25.0,-100.00,NNE,27,7.0,13.0,20,0.00,,,0.00,1038.000000,,2013-03-20 20:53:00,
2013-03-20 16:02:00,68.0,25.0,-100.00,NNE,27,7.0,13.0,20,0.00,,,0.00,1038.000000,,2013-03-20 21:02:00,
2013-03-20 16:33:00,68.0,25.0,-100.00,ENE,67,7.0,13.0,20,0.00,,,0.00,918.000000,,2013-03-20 21:33:00,
2013-03-20 16:42:00,68.0,25.0,-100.00,ENE,67,7.0,13.0,20,0.00,,,0.00,918.000000,,2013-03-20 21:42:00,
2013-03-20 16:53:00,68.0,25.0,-100.00,ENE,67,7.0,13.0,20,0.00,,,0.00,918.000000,,2013-03-20 21:53:00,
2013-03-20 17:03:00,68.0,25.0,-100.00,ENE,67,7.0,13.0,20,0.00,,,0.00,918.000000,,2013-03-20 22:03:00,
2013-03-20 17:33:00,69.0,25.0,-100.00,NE,46,7.0,15.0,19,0.00,,,0.00,707.000000,,2013-03-20 22:33:00,
2013-03-20 17:43:00,69.0,25.0,-100.00,NE,46,7.0,15.0,19,0.00,,,0.00,707.000000,,2013-03-20 22:43:00,
2013-03-20 17:53:00,69.0,25.0,-100.00,NE,46,7.0,15.0,19,0.00,,,0.00,707.000000,,2013-03-20 22:53:00,
2013-03-20 18:02:00,69.0,25.0,-100.00,NE,46,7.0,15.0,19,0.00,,,0.00,707.000000,,2013-03-20 23:02:00,
2013-03-20 18:33:00,68.0,25.0,-100.00,SSE,148,7.0,12.0,20,0.00,,,0.00,462.000000,,2013-03-20 23:33:00,
2013-03-20 18:43:00,68.0,25.0,-100.00,SSE,148,7.0,12.0,20,0.00,,,0.00,462.000000,,2013-03-20 23:43:00,
2013-03-20 18:53:00,68.0,25.0,-100.00,SSE,148,7.0,12.0,20,0.00,,,0.00,462.000000,,2013-03-20 23:53:00,
2013-03-20 19:02:00,68.0,25.0,-100.00,SSE,148,7.0,12.0,20,0.00,,,0.00,462.000000,,2013-03-21 00:02:00,
2013-03-20 19:33:00,65.0,24.0,-100.00,SE,137,7.0,14.0,21,0.00,,,0.00,208.000000,,2013-03-21 00:33:00,
2013-03-20 19:42:00,65.0,24.0,-100.00,SE,137,7.0,14.0,21,0.00,,,0.00,208.000000,,2013-03-21 00:42:00,
2013-03-20 19:52:00,65.0,24.0,-100.00,SE,137,7.0,14.0,21,0.00,,,0.00,208.000000,,2013-03-21 00:52:00,
2013-03-20 20:02:00,65.0,24.0,-100.00,SE,137,7.0,14.0,21,0.00,,,0.00,208.000000,,2013-03-21 01:02:00,
2013-03-20 20:33:00,62.0,24.0,-100.00,SE,132,8.0,14.0,23,0.00,,,0.00,39.000000,,2013-03-21 01:33:00,
2013-03-20 20:42:00,62.0,24.0,-100.00,SE,132,8.0,14.0,23,0.00,,,0.00,39.000000,,2013-03-21 01:42:00,
2013-03-20 20:53:00,62.0,24.0,-100.00,SE,132,8.0,14.0,23,0.00,,,0.00,39.000000,,2013-03-21 01:53:00,
2013-03-20 21:02:00,62.0,24.0,-100.00,SE,132,8.0,14.0,23,0.00,,,0.00,39.000000,,2013-03-21 02:02:00,
2013-03-20 21:33:00,59.0,25.0,-100.00,SE,130,7.0,11.0,27,0.00,,,0.00,0.000000,,2013-03-21 02:33:00,
2013-03-20 21:42:00,59.0,25.0,-100.00,SE,130,7.0,11.0,27,0.00,,,0.00,0.000000,,2013-03-21 02:42:00,
2013-03-20 21:52:00,59.0,25.0,-100.00,SE,130,7.0,11.0,27,0.00,,,0.00,0.000000,,2013-03-21 02:52:00,
2013-03-20 22:02:00,59.0,25.0,-100.00,SE,130,7.0,11.0,27,0.00,,,0.00,0.000000,,2013-03-21 03:02:00,
2013-03-20 22:33:00,57.0,24.0,-100.00,SE,133,8.0,13.0,28,0.00,,,0.00,0.000000,,2013-03-21 03:33:00,
2013-03-20 22:43:00,57.0,24.0,-100.00,SE,133,8.0,13.0,28,0.00,,,0.00,0.000000,,2013-03-21 03:43:00,
2013-03-20 22:53:00,57.0,24.0,-100.00,SE,133,8.0,13.0,28,0.00,,,0.00,0.000000,,2013-03-21 03:53:00,
2013-03-20 23:03:00,57.0,24.0,-100.00,SE,133,8.0,13.0,28,0.00,,,0.00,0.000000,,2013-03-21 04:03:00,
2013-03-20 23:33:00,56.0,23.0,-100.00,SSE,148,8.0,13.0,28,0.00,,,0.00,0.000000,,2013-03-21 04:33:00,
2013-03-20 23:43:00,56.0,23.0,-100.00,SSE,148,8.0,13.0,28,0.00,,,0.00,0.000000,,2013-03-21 04:43:00,
2013-03-20 23:53:00,56.0,23.0,-100.00,SSE,148,8.0,13.0,28,0.00,,,0.00,0.000000,,2013-03-21 04:53:00,